Time;durP1;ratioP1;P1;durP2;ratioP2;P2;SDS_P1;SDS_P2;PMS_P1;PMS_P2;Temp;Humidity;BMP_temperature;BMP_pressure;BME280_temperature;BME280_humidity;BME280_pressure;Samples;Min_cycle;Max_cycle;Signal;HPM_P1;HPM_P2
2022/03/06 00:00:17;;;;;;;8.10;4.43;;;;;;;;;;6319959;28;20048;-71
2022/03/06 00:03:40;;;;;;;9.57;5.05;;;;;;;;;;6318697;28;20073;-72
2022/03/06 00:06:43;;;;;;;9.60;4.97;;;;;;;;;;6302032;28;20133;-72
2022/03/06 00:09:48;;;;;;;9.65;5.22;;;;;;;;;;6319984;28;20040;-72
2022/03/06 00:12:51;;;;;;;12.90;4.95;;;;;;;;;;6292226;28;20486;-71
2022/03/06 00:15:57;;;;;;;11.65;5.68;;;;;;;;;;6293932;28;20044;-71
2022/03/06 00:19:00;;;;;;;9.63;4.82;;;;;;;;;;6294531;28;20072;-71
2022/03/06 00:22:07;;;;;;;9.35;5.00;;;;;;;;;;6293248;28;20090;-72
2022/03/06 00:25:12;;;;;;;9.32;4.80;;;;;;;;;;6293155;28;20052;-72
2022/03/06 00:28:15;;;;;;;9.50;4.70;;;;;;;;;;6294326;28;20041;-72
2022/03/06 00:31:18;;;;;;;9.98;4.88;;;;;;;;;;6292960;28;20494;-72
2022/03/06 00:34:21;;;;;;;9.70;5.30;;;;;;;;;;6292805;28;20048;-72
2022/03/06 00:37:24;;;;;;;10.23;4.45;;;;;;;;;;6293678;28;20048;-72
2022/03/06 00:40:29;;;;;;;9.75;4.93;;;;;;;;;;6294473;28;20502;-72
2022/03/06 00:43:32;;;;;;;9.45;5.05;;;;;;;;;;6292570;28;20443;-71
2022/03/06 00:46:35;;;;;;;9.13;4.57;;;;;;;;;;6292645;28;20044;-72
2022/03/06 00:49:38;;;;;;;9.73;4.93;;;;;;;;;;6293944;28;20050;-72
2022/03/06 00:52:41;;;;;;;10.30;4.60;;;;;;;;;;6293974;28;20478;-72
2022/03/06 00:55:48;;;;;;;7.57;4.28;;;;;;;;;;6291144;28;20040;-72
2022/03/06 00:58:53;;;;;;;11.55;5.70;;;;;;;;;;6292565;28;20059;-73
2022/03/06 01:01:57;;;;;;;11.88;5.32;;;;;;;;;;6293844;28;20109;-73
2022/03/06 01:05:03;;;;;;;;;;;;;;;;;;6292313;28;20437;-73
2022/03/06 01:08:06;;;;;;;12.07;5.38;;;;;;;;;;6292326;28;19921;-73
2022/03/06 01:11:11;;;;;;;13.38;4.97;;;;;;;;;;6296317;28;20552;-73
2022/03/06 01:14:14;;;;;;;11.63;5.10;;;;;;;;;;6319007;28;20090;-72
2022/03/06 01:17:18;;;;;;;10.80;5.63;;;;;;;;;;6317231;28;20044;-73
2022/03/06 01:20:23;;;;;;;9.32;4.63;;;;;;;;;;6300454;28;20042;-72
2022/03/06 01:23:28;;;;;;;12.10;5.32;;;;;;;;;;6300664;28;20040;-72
2022/03/06 01:26:32;;;;;;;10.13;5.22;;;;;;;;;;6299647;28;20193;-73
2022/03/06 01:29:35;;;;;;;11.25;4.80;;;;;;;;;;6299714;28;20338;-72
2022/03/06 01:32:39;;;;;;;10.13;5.60;;;;;;;;;;6318435;28;20040;-73
2022/03/06 01:35:42;;;;;;;9.48;4.88;;;;;;;;;;6300250;28;20052;-72
2022/03/06 01:38:45;;;;;;;10.30;4.90;;;;;;;;;;6298733;28;20100;-73
2022/03/06 01:41:49;;;;;;;10.85;4.85;;;;;;;;;;6318550;28;20071;-73
2022/03/06 01:44:53;;;;;;;11.70;5.55;;;;;;;;;;6300246;28;20123;-73
2022/03/06 01:47:58;;;;;;;12.73;6.05;;;;;;;;;;6317790;28;20044;-73
2022/03/06 01:51:03;;;;;;;8.27;4.63;;;;;;;;;;6299582;28;20051;-72
2022/03/06 01:54:07;;;;;;;11.40;5.22;;;;;;;;;;6318303;28;20406;-73
2022/03/06 01:57:13;;;;;;;11.30;5.50;;;;;;;;;;6299868;28;20130;-73
2022/03/06 02:00:18;;;;;;;11.38;5.20;;;;;;;;;;6298718;28;20048;-72
2022/03/06 02:03:21;;;;;;;14.25;6.30;;;;;;;;;;6300042;28;20050;-72
2022/03/06 02:06:25;;;;;;;10.50;5.63;;;;;;;;;;6318136;28;20044;-72
2022/03/06 02:09:28;;;;;;;14.57;5.95;;;;;;;;;;6316691;28;20046;-72
2022/03/06 02:12:33;;;;;;;11.75;5.28;;;;;;;;;;6299852;28;20498;-72
2022/03/06 02:15:36;;;;;;;11.05;5.43;;;;;;;;;;6318386;28;20051;-73
2022/03/06 02:18:39;;;;;;;11.57;5.90;;;;;;;;;;6300074;28;20048;-72
2022/03/06 02:21:49;;;;;;;10.10;5.03;;;;;;;;;;6303093;28;20394;-73
2022/03/06 02:24:53;;;;;;;11.35;5.40;;;;;;;;;;6322620;28;20044;-72
2022/03/06 02:27:57;;;;;;;11.18;5.72;;;;;;;;;;6304086;28;20441;-72
2022/03/06 02:31:01;;;;;;;12.15;5.93;;;;;;;;;;6320837;28;20052;-72
2022/03/06 02:34:04;;;;;;;11.70;5.65;;;;;;;;;;6303870;28;20052;-71
2022/03/06 02:37:09;;;;;;;11.57;5.53;;;;;;;;;;6304098;28;20146;-72
2022/03/06 02:40:14;;;;;;;10.95;4.88;;;;;;;;;;6303438;28;20048;-72
2022/03/06 02:43:17;;;;;;;10.65;5.45;;;;;;;;;;6302802;28;20044;-72
2022/03/06 02:46:21;;;;;;;11.65;5.38;;;;;;;;;;6303934;28;20714;-73
2022/03/06 02:49:24;;;;;;;12.15;5.57;;;;;;;;;;6321865;28;20052;-73
2022/03/06 02:52:29;;;;;;;9.70;5.50;;;;;;;;;;6320165;28;20672;-73
2022/03/06 02:55:32;;;;;;;12.82;5.65;;;;;;;;;;6322002;28;20055;-72
2022/03/06 02:58:35;;;;;;;11.00;5.70;;;;;;;;;;6321454;28;20383;-72
2022/03/06 03:01:41;;;;;;;10.82;5.38;;;;;;;;;;6302766;28;20044;-72
2022/03/06 03:04:44;;;;;;;9.90;5.35;;;;;;;;;;6320653;28;20054;-73
2022/03/06 03:07:50;;;;;;;12.63;6.03;;;;;;;;;;6303397;28;20551;-72
2022/03/06 03:10:55;;;;;;;10.77;5.50;;;;;;;;;;6320962;28;20043;-72
2022/03/06 03:13:58;;;;;;;9.65;5.15;;;;;;;;;;6319803;28;20048;-72
2022/03/06 03:17:01;;;;;;;11.40;5.43;;;;;;;;;;6321514;28;20187;-72
2022/03/06 03:20:05;;;;;;;13.48;6.30;;;;;;;;;;6321124;28;20067;-71
2022/03/06 03:23:10;;;;;;;9.32;5.15;;;;;;;;;;6320405;28;20721;-72
2022/03/06 03:26:13;;;;;;;11.77;5.30;;;;;;;;;;6320363;28;20043;-72
2022/03/06 03:29:16;;;;;;;11.50;5.95;;;;;;;;;;6320892;28;20149;-71
2022/03/06 03:32:19;;;;;;;13.10;5.30;;;;;;;;;;6320544;28;20048;-72
2022/03/06 03:35:22;;;;;;;10.30;5.75;;;;;;;;;;6319412;28;20048;-71
2022/03/06 03:38:27;;;;;;;10.30;5.38;;;;;;;;;;6302817;28;20692;-72
2022/03/06 03:41:30;;;;;;;9.85;5.18;;;;;;;;;;6320599;28;20051;-72
2022/03/06 03:44:33;;;;;;;11.68;5.65;;;;;;;;;;6319128;28;20473;-72
2022/03/06 03:47:36;;;;;;;12.07;5.47;;;;;;;;;;6320274;28;20051;-73
2022/03/06 03:50:42;;;;;;;11.63;5.60;;;;;;;;;;6302257;28;20040;-73
2022/03/06 03:53:48;;;;;;;10.10;5.30;;;;;;;;;;6319899;28;20074;-73
2022/03/06 03:56:51;;;;;;;14.38;5.65;;;;;;;;;;6300972;28;20048;-72
2022/03/06 03:59:54;;;;;;;10.30;5.60;;;;;;;;;;6302082;28;20064;-73
2022/03/06 04:02:58;;;;;;;10.68;5.63;;;;;;;;;;6301854;28;20440;-72
2022/03/06 04:06:01;;;;;;;12.63;5.80;;;;;;;;;;6318355;28;20046;-72
2022/03/06 04:09:05;;;;;;;11.52;5.85;;;;;;;;;;6301845;28;20052;-72
2022/03/06 04:12:11;;;;;;;12.15;5.95;;;;;;;;;;6301518;28;20063;-72
2022/03/06 04:15:14;;;;;;;16.95;6.35;;;;;;;;;;6318998;28;20047;-72
2022/03/06 04:18:17;;;;;;;11.73;5.47;;;;;;;;;;6318822;28;20481;-72
2022/03/06 04:21:23;;;;;;;;;;;;;;;;;;6302594;28;20048;-71
2022/03/06 04:24:27;;;;;;;14.65;5.82;;;;;;;;;;6319555;28;19920;-72
2022/03/06 04:27:33;;;;;;;10.77;5.43;;;;;;;;;;6299776;28;20048;-71
2022/03/06 04:30:38;;;;;;;11.38;5.63;;;;;;;;;;6301350;28;20051;-72
2022/03/06 04:33:41;;;;;;;14.60;6.22;;;;;;;;;;6301199;28;20048;-72
2022/03/06 04:36:44;;;;;;;11.40;5.50;;;;;;;;;;6300000;28;20093;-72
2022/03/06 04:39:52;;;;;;;11.18;5.78;;;;;;;;;;6300442;28;20039;-71
2022/03/06 04:42:55;;;;;;;9.50;5.10;;;;;;;;;;6318824;28;20496;-72
2022/03/06 04:45:58;;;;;;;10.52;5.47;;;;;;;;;;6300888;28;20044;-72
2022/03/06 04:49:01;;;;;;;12.30;5.55;;;;;;;;;;6317621;28;20044;-71
2022/03/06 04:52:05;;;;;;;13.23;5.80;;;;;;;;;;6300955;28;20093;-72
2022/03/06 04:55:10;;;;;;;10.43;5.40;;;;;;;;;;6300991;28;20101;-71
2022/03/06 04:58:15;;;;;;;12.10;5.07;;;;;;;;;;6299382;28;20402;-71
2022/03/06 05:01:18;;;;;;;12.23;5.90;;;;;;;;;;6300417;28;20072;-72
2022/03/06 05:04:25;;;;;;;11.98;5.28;;;;;;;;;;6300663;28;20051;-72
2022/03/06 05:07:28;;;;;;;10.38;6.07;;;;;;;;;;6300388;28;20044;-73
2022/03/06 05:10:35;;;;;;;10.38;5.85;;;;;;;;;;6299368;28;20509;-73
2022/03/06 05:13:38;;;;;;;11.48;5.78;;;;;;;;;;6317104;28;20056;-73
2022/03/06 05:16:42;;;;;;;10.65;5.32;;;;;;;;;;6299268;28;20040;-74
2022/03/06 05:19:47;;;;;;;11.23;5.90;;;;;;;;;;6297163;28;20044;-73
2022/03/06 05:22:50;;;;;;;10.30;5.57;;;;;;;;;;6317040;28;20051;-73
2022/03/06 05:25:54;;;;;;;10.07;5.20;;;;;;;;;;6299046;28;20052;-73
2022/03/06 05:28:58;;;;;;;15.73;6.60;;;;;;;;;;6316567;28;20044;-73
2022/03/06 05:32:03;;;;;;;12.27;5.50;;;;;;;;;;6297350;28;20134;-73
2022/03/06 05:35:07;;;;;;;11.80;5.43;;;;;;;;;;6317259;28;20052;-73
2022/03/06 05:38:10;;;;;;;12.98;5.68;;;;;;;;;;6298678;28;20131;-73
2022/03/06 05:41:14;;;;;;;10.07;4.90;;;;;;;;;;6314933;28;20058;-74
2022/03/06 05:44:18;;;;;;;13.20;5.53;;;;;;;;;;6316713;28;20054;-73
2022/03/06 05:47:21;;;;;;;10.05;4.85;;;;;;;;;;6298796;28;20098;-73
2022/03/06 05:50:24;;;;;;;13.60;5.47;;;;;;;;;;6315849;28;20052;-73
2022/03/06 05:53:28;;;;;;;12.40;5.50;;;;;;;;;;6297876;28;20044;-73
2022/03/06 05:56:32;;;;;;;11.00;5.10;;;;;;;;;;6321705;28;20127;-74
2022/03/06 05:59:35;;;;;;;13.45;5.60;;;;;;;;;;6303211;28;20040;-73
2022/03/06 06:02:39;;;;;;;9.40;5.20;;;;;;;;;;6319408;28;20054;-74
2022/03/06 06:05:43;;;;;;;9.88;5.15;;;;;;;;;;6303416;28;20129;-74
2022/03/06 06:08:46;;;;;;;15.50;8.02;;;;;;;;;;6321362;28;20049;-73
2022/03/06 06:11:57;;;;;;;13.63;6.28;;;;;;;;;;6319942;28;20060;-72
2022/03/06 06:15:02;;;;;;;13.93;7.32;;;;;;;;;;6302130;28;20174;-73
2022/03/06 06:18:05;;;;;;;11.15;5.93;;;;;;;;;;6321327;28;20085;-73
2022/03/06 06:21:09;;;;;;;10.65;5.47;;;;;;;;;;6302834;28;20139;-72
2022/03/06 06:24:16;;;;;;;10.57;5.05;;;;;;;;;;6300970;28;20040;-72
2022/03/06 06:27:20;;;;;;;9.50;5.78;;;;;;;;;;6302897;28;20044;-73
2022/03/06 06:30:25;;;;;;;;;;;;;;;;;;6303332;28;20044;-72
2022/03/06 06:33:28;;;;;;;9.02;4.30;;;;;;;;;;6319303;28;19920;-74
2022/03/06 06:36:32;;;;;;;8.55;4.50;;;;;;;;;;6302878;28;20044;-73
2022/03/06 06:39:36;;;;;;;9.35;5.30;;;;;;;;;;6302749;28;20122;-73
2022/03/06 06:42:43;;;;;;;9.38;4.78;;;;;;;;;;6302170;28;20059;-73
2022/03/06 06:45:46;;;;;;;10.88;4.68;;;;;;;;;;6300505;28;20409;-73
2022/03/06 06:48:52;;;;;;;;;;;;;;;;;;6302998;28;20413;-73
2022/03/06 06:51:58;;;;;;;8.63;4.30;;;;;;;;;;6320518;28;19929;-72
2022/03/06 06:55:01;;;;;;;10.68;4.93;;;;;;;;;;6318433;28;20040;-72
2022/03/06 06:58:08;;;;;;;9.18;4.53;;;;;;;;;;6302054;28;20048;-73
2022/03/06 07:01:11;;;;;;;8.45;4.95;;;;;;;;;;6319991;28;20048;-73
2022/03/06 07:04:17;;;;;;;12.15;5.07;;;;;;;;;;6301003;28;20048;-73
2022/03/06 07:07:20;;;;;;;10.88;4.63;;;;;;;;;;6318232;28;20497;-72
2022/03/06 07:10:25;;;;;;;9.20;4.90;;;;;;;;;;6320007;28;20071;-73
2022/03/06 07:13:31;;;;;;;9.02;4.65;;;;;;;;;;6293236;28;20057;-73
2022/03/06 07:16:34;;;;;;;11.48;4.93;;;;;;;;;;6291233;28;20048;-73
2022/03/06 07:19:37;;;;;;;7.28;4.40;;;;;;;;;;6294090;28;20053;-73
2022/03/06 07:22:42;;;;;;;8.98;4.75;;;;;;;;;;6293269;28;20130;-73
2022/03/06 07:25:46;;;;;;;10.85;4.40;;;;;;;;;;6292207;28;20044;-73
2022/03/06 07:28:51;;;;;;;8.50;4.30;;;;;;;;;;6292966;28;20066;-73
2022/03/06 07:31:54;;;;;;;10.13;5.03;;;;;;;;;;6294264;28;20052;-73
2022/03/06 07:35:00;;;;;;;8.48;4.60;;;;;;;;;;6276653;28;20036;-72
2022/03/06 07:38:03;;;;;;;9.70;4.95;;;;;;;;;;6291982;28;20052;-73
2022/03/06 07:41:06;;;;;;;10.70;4.70;;;;;;;;;;6293878;28;20121;-73
2022/03/06 07:44:11;;;;;;;11.77;4.78;;;;;;;;;;6293825;28;20060;-73
2022/03/06 07:47:17;;;;;;;9.48;4.53;;;;;;;;;;6292708;28;20505;-73
2022/03/06 07:50:20;;;;;;;10.13;5.07;;;;;;;;;;6292689;28;20178;-73
2022/03/06 07:53:23;;;;;;;6.85;4.30;;;;;;;;;;6293736;28;20482;-73
2022/03/06 07:56:29;;;;;;;10.93;5.03;;;;;;;;;;6292358;28;20045;-73
2022/03/06 07:59:36;;;;;;;9.90;5.15;;;;;;;;;;6289894;28;20170;-72
2022/03/06 08:02:40;;;;;;;7.07;4.20;;;;;;;;;;6293770;28;20590;-72
2022/03/06 08:05:46;;;;;;;8.48;5.05;;;;;;;;;;6291780;28;20048;-72
2022/03/06 08:08:50;;;;;;;7.93;4.05;;;;;;;;;;6290434;28;20048;-73
2022/03/06 08:11:53;;;;;;;7.38;4.32;;;;;;;;;;6298805;28;20052;-73
2022/03/06 08:14:58;;;;;;;7.38;4.72;;;;;;;;;;6318245;28;20043;-73
2022/03/06 08:18:01;;;;;;;7.18;4.00;;;;;;;;;;6317230;28;20563;-73
2022/03/06 08:21:04;;;;;;;16.83;4.60;;;;;;;;;;6316451;28;20047;-73
2022/03/06 08:24:07;;;;;;;9.40;4.70;;;;;;;;;;6318255;28;20040;-73
2022/03/06 08:27:11;;;;;;;8.77;5.00;;;;;;;;;;6299671;28;20059;-72
2022/03/06 08:30:16;;;;;;;9.05;4.60;;;;;;;;;;6297836;28;20493;-73
2022/03/06 08:33:19;;;;;;;10.63;5.07;;;;;;;;;;6317553;28;20044;-73
2022/03/06 08:36:23;;;;;;;12.23;5.57;;;;;;;;;;6317894;28;20404;-73
2022/03/06 08:39:28;;;;;;;9.43;4.82;;;;;;;;;;6299006;28;20044;-73
2022/03/06 08:42:31;;;;;;;10.50;5.15;;;;;;;;;;6315880;28;20039;-74
2022/03/06 08:45:37;;;;;;;11.68;5.03;;;;;;;;;;6317648;28;20050;-73
2022/03/06 08:48:40;;;;;;;11.20;5.78;;;;;;;;;;6299387;28;20479;-73
2022/03/06 08:51:43;;;;;;;10.50;5.78;;;;;;;;;;6315378;28;20051;-72
2022/03/06 08:54:46;;;;;;;11.90;6.28;;;;;;;;;;6317305;28;20122;-73
2022/03/06 08:57:52;;;;;;;11.30;5.30;;;;;;;;;;6317488;28;20047;-72
2022/03/06 09:00:57;;;;;;;11.10;5.72;;;;;;;;;;6297937;28;20169;-72
2022/03/06 09:04:00;;;;;;;11.43;6.07;;;;;;;;;;6298057;28;20722;-72
2022/03/06 09:07:04;;;;;;;13.48;6.50;;;;;;;;;;6317249;28;20132;-72
2022/03/06 09:10:09;;;;;;;13.63;6.93;;;;;;;;;;6317305;28;20036;-72
2022/03/06 09:13:13;;;;;;;11.30;6.55;;;;;;;;;;6296764;28;20078;-72
2022/03/06 09:16:18;;;;;;;14.07;6.72;;;;;;;;;;6317570;28;20434;-72
2022/03/06 09:19:21;;;;;;;13.70;6.28;;;;;;;;;;6317010;28;20047;-70
2022/03/06 09:22:26;;;;;;;12.85;6.63;;;;;;;;;;6297545;28;20048;-71
2022/03/06 09:25:32;;;;;;;13.65;6.93;;;;;;;;;;6316398;28;20048;-71
2022/03/06 09:28:36;;;;;;;15.35;7.57;;;;;;;;;;6318844;28;20154;-73
2022/03/06 09:31:40;;;;;;;12.15;6.55;;;;;;;;;;6302925;28;20465;-74
2022/03/06 09:34:44;;;;;;;12.53;6.83;;;;;;;;;;6302285;28;20433;-73
2022/03/06 09:37:47;;;;;;;14.57;7.72;;;;;;;;;;6322734;28;20485;-74
2022/03/06 09:40:54;;;;;;;14.20;7.20;;;;;;;;;;6304129;28;20044;-73
2022/03/06 09:44:04;;;;;;;12.13;7.35;;;;;;;;;;6318013;28;20374;-74
2022/03/06 09:47:10;;;;;;;14.00;6.90;;;;;;;;;;6318433;28;20048;-74
2022/03/06 09:50:16;;;;;;;13.15;7.03;;;;;;;;;;6301300;28;20040;-74
2022/03/06 09:53:19;;;;;;;11.55;6.32;;;;;;;;;;6300708;28;20071;-74
2022/03/06 09:56:25;;;;;;;11.88;6.72;;;;;;;;;;6298724;28;20039;-72
2022/03/06 09:59:30;;;;;;;14.27;6.88;;;;;;;;;;6321780;28;20478;-73
2022/03/06 10:02:51;;;;;;;11.23;6.68;;;;;;;;;;6321736;28;20074;-74
2022/03/06 10:05:57;;;;;;;11.35;5.78;;;;;;;;;;6320691;28;20051;-75
2022/03/06 10:09:04;;;;;;;12.52;7.15;;;;;;;;;;6285913;28;20185;-74
2022/03/06 10:12:18;;;;;;;12.00;6.05;;;;;;;;;;6303540;28;20064;-75
2022/03/06 10:15:21;;;;;;;12.30;6.25;;;;;;;;;;6321167;28;20044;-75
2022/03/06 10:18:29;;;;;;;11.10;6.10;;;;;;;;;;6301388;28;20047;-75
2022/03/06 10:21:32;;;;;;;11.02;6.38;;;;;;;;;;6321001;28;20118;-74
2022/03/06 10:24:46;;;;;;;11.35;6.22;;;;;;;;;;6321142;28;20048;-74
2022/03/06 10:27:51;;;;;;;12.07;6.82;;;;;;;;;;6302624;28;20113;-75
2022/03/06 10:30:55;;;;;;;11.63;6.55;;;;;;;;;;6319189;28;20052;-74
2022/03/06 10:34:01;;;;;;;11.60;6.72;;;;;;;;;;6302834;28;20549;-73
2022/03/06 10:37:05;;;;;;;13.15;7.22;;;;;;;;;;6321046;28;20489;-74
2022/03/06 10:40:14;;;;;;;10.48;5.95;;;;;;;;;;6300008;28;20048;-75
2022/03/06 10:43:19;;;;;;;12.68;6.75;;;;;;;;;;6320109;28;20097;-75
2022/03/06 10:46:22;;;;;;;12.88;6.78;;;;;;;;;;6320707;28;20086;-75
2022/03/06 10:49:27;;;;;;;11.13;6.38;;;;;;;;;;6320369;28;20055;-75
2022/03/06 10:52:40;;;;;;;12.90;6.90;;;;;;;;;;6318514;28;20063;-76
2022/03/06 10:55:44;;;;;;;12.25;6.55;;;;;;;;;;6302621;28;20048;-73
2022/03/06 10:58:49;;;;;;;11.45;6.47;;;;;;;;;;6320133;28;20518;-74
2022/03/06 11:02:05;;;;;;;13.95;6.95;;;;;;;;;;6301348;28;20047;-74
2022/03/06 11:05:10;;;;;;;14.85;7.13;;;;;;;;;;6301041;28;20036;-73
2022/03/06 11:08:14;;;;;;;13.25;7.30;;;;;;;;;;6320134;28;20554;-72
2022/03/06 11:11:18;;;;;;;12.32;6.72;;;;;;;;;;6319809;28;20044;-75
2022/03/06 11:14:21;;;;;;;11.65;6.95;;;;;;;;;;6300131;28;20047;-75
2022/03/06 11:17:24;;;;;;;13.20;7.20;;;;;;;;;;6320084;28;20044;-74
2022/03/06 11:20:30;;;;;;;12.10;7.28;;;;;;;;;;6319871;28;20051;-75
2022/03/06 11:23:33;;;;;;;;;;;;;;;;;;6318631;28;20048;-72
2022/03/06 11:27:01;;;;;;;13.35;7.55;;;;;;;;;;6319143;28;20278;-75
2022/03/06 11:30:07;;;;;;;12.70;7.50;;;;;;;;;;6301427;28;20048;-73
2022/03/06 11:33:13;;;;;;;13.60;6.82;;;;;;;;;;6301156;28;20044;-74
2022/03/06 11:36:21;;;;;;;12.82;7.20;;;;;;;;;;6317320;28;20071;-74
2022/03/06 11:39:54;;;;;;;15.52;7.90;;;;;;;;;;6319270;28;20350;-74
2022/03/06 11:42:58;;;;;;;11.93;7.28;;;;;;;;;;6217479;28;20045;-75
2022/03/06 11:46:05;;;;;;;12.93;7.78;;;;;;;;;;6319154;28;20047;-74
2022/03/06 11:49:11;;;;;;;15.23;8.07;;;;;;;;;;6317018;28;20505;-75
2022/03/06 11:52:29;;;;;;;14.18;7.60;;;;;;;;;;6299854;28;20055;-74
2022/03/06 11:55:36;;;;;;;14.05;7.68;;;;;;;;;;6300799;28;20032;-73
2022/03/06 11:58:57;;;;;;;12.47;6.93;;;;;;;;;;6300320;28;20048;-72
2022/03/06 12:02:08;;;;;;;13.43;7.60;;;;;;;;;;6298951;28;20044;-75
2022/03/06 12:05:12;;;;;;;13.60;7.45;;;;;;;;;;6318877;28;20056;-73
2022/03/06 12:08:17;;;;;;;14.68;8.35;;;;;;;;;;6318797;28;20201;-73
2022/03/06 12:11:21;;;;;;;;;;;;;;;;;;6299678;28;20051;-73
2022/03/06 12:14:25;;;;;;;12.43;7.47;;;;;;;;;;6299339;28;19927;-75
2022/03/06 12:17:31;;;;;;;12.02;7.07;;;;;;;;;;6318648;28;20422;-76
2022/03/06 12:20:42;;;;;;;13.98;8.45;;;;;;;;;;6300146;28;20173;-75
2022/03/06 12:23:47;;;;;;;15.50;7.85;;;;;;;;;;6316509;28;20047;-74
2022/03/06 12:26:53;;;;;;;12.90;7.90;;;;;;;;;;6319175;28;20044;-74
2022/03/06 12:30:00;;;;;;;13.50;8.45;;;;;;;;;;6300279;28;20063;-76
2022/03/06 12:33:18;;;;;;;13.80;7.20;;;;;;;;;;6299099;28;20169;-75
2022/03/06 12:36:23;;;;;;;14.45;7.47;;;;;;;;;;6297767;28;20052;-75
2022/03/06 12:39:28;;;;;;;12.68;6.82;;;;;;;;;;6319125;28;20434;-75
2022/03/06 12:42:32;;;;;;;13.68;8.10;;;;;;;;;;6318400;28;20474;-76
2022/03/06 12:45:38;;;;;;;12.82;7.78;;;;;;;;;;6316109;28;20050;-75
2022/03/06 12:48:42;;;;;;;14.50;8.00;;;;;;;;;;6317883;28;20506;-74
2022/03/06 12:51:48;;;;;;;15.38;8.50;;;;;;;;;;6317907;28;20048;-74
2022/03/06 12:54:56;;;;;;;13.15;7.57;;;;;;;;;;6299109;28;20044;-74
2022/03/06 12:58:00;;;;;;;12.57;7.75;;;;;;;;;;6298010;28;20203;-75
2022/03/06 13:01:08;;;;;;;11.82;7.30;;;;;;;;;;6299746;28;20402;-75
2022/03/06 13:04:12;;;;;;;12.77;7.45;;;;;;;;;;6317098;28;20051;-75
2022/03/06 13:07:16;;;;;;;15.27;8.40;;;;;;;;;;6315600;28;20101;-75
2022/03/06 13:10:22;;;;;;;12.30;7.35;;;;;;;;;;6299619;28;20047;-74
2022/03/06 13:13:29;;;;;;;13.32;7.82;;;;;;;;;;6317806;28;20051;-75
2022/03/06 13:16:34;;;;;;;12.57;7.43;;;;;;;;;;6299114;28;20059;-75
2022/03/06 13:19:43;;;;;;;11.83;7.07;;;;;;;;;;6297927;28;20200;-75
2022/03/06 13:22:48;;;;;;;11.98;7.50;;;;;;;;;;6299319;28;20387;-75
2022/03/06 13:25:53;;;;;;;14.35;8.00;;;;;;;;;;6299220;28;20055;-75
2022/03/06 13:28:59;;;;;;;12.52;7.43;;;;;;;;;;6297496;28;20048;-75
2022/03/06 13:32:05;;;;;;;14.75;7.32;;;;;;;;;;6282814;28;20478;-75
2022/03/06 13:35:24;;;;;;;15.75;7.72;;;;;;;;;;6317408;28;20051;-75
2022/03/06 13:38:30;;;;;;;13.27;8.05;;;;;;;;;;6299283;28;20048;-74
2022/03/06 13:41:37;;;;;;;13.93;7.60;;;;;;;;;;6315522;28;20491;-74
2022/03/06 13:44:56;;;;;;;12.38;7.05;;;;;;;;;;6282810;28;20470;-75
2022/03/06 13:48:02;;;;;;;11.45;7.25;;;;;;;;;;6317193;28;20044;-73
2022/03/06 13:51:06;;;;;;;13.82;7.07;;;;;;;;;;6316016;28;20113;-73
2022/03/06 13:54:10;;;;;;;13.43;7.03;;;;;;;;;;6315957;28;20524;-74
2022/03/06 13:57:14;;;;;;;13.40;7.57;;;;;;;;;;6317004;28;20051;-72
2022/03/06 14:00:21;;;;;;;14.52;7.28;;;;;;;;;;6316994;28;20137;-74
2022/03/06 14:03:27;;;;;;;11.88;6.88;;;;;;;;;;6314941;28;20044;-76
2022/03/06 14:06:34;;;;;;;12.73;7.10;;;;;;;;;;6317095;28;20409;-75
2022/03/06 14:09:45;;;;;;;13.23;7.15;;;;;;;;;;6316963;28;20040;-79
2022/03/06 14:12:50;;;;;;;10.65;6.25;;;;;;;;;;6315973;28;20131;-73
2022/03/06 14:15:54;;;;;;;14.25;7.43;;;;;;;;;;6318241;28;20048;-74
2022/03/06 14:19:01;;;;;;;12.68;7.35;;;;;;;;;;6303405;28;20046;-73
2022/03/06 14:22:07;;;;;;;12.35;6.70;;;;;;;;;;6303155;28;20051;-74
2022/03/06 14:25:13;;;;;;;13.57;6.72;;;;;;;;;;6319420;28;20053;-73
2022/03/06 14:28:18;;;;;;;15.40;7.45;;;;;;;;;;6302928;28;20044;-73
2022/03/06 14:31:21;;;;;;;12.18;7.47;;;;;;;;;;6303058;28;20043;-75
2022/03/06 14:34:26;;;;;;;11.32;6.95;;;;;;;;;;6320168;28;20047;-75
2022/03/06 14:37:30;;;;;;;12.32;6.85;;;;;;;;;;6301882;28;20454;-74
2022/03/06 14:40:33;;;;;;;13.25;6.95;;;;;;;;;;6320891;28;20040;-73
2022/03/06 14:43:38;;;;;;;13.75;6.50;;;;;;;;;;6302673;28;20052;-75
2022/03/06 14:46:42;;;;;;;12.03;6.50;;;;;;;;;;6300770;28;20048;-74
2022/03/06 14:49:48;;;;;;;10.93;6.50;;;;;;;;;;6320785;28;20476;-74
2022/03/06 14:52:51;;;;;;;9.55;6.00;;;;;;;;;;6320968;28;20052;-74
2022/03/06 14:55:55;;;;;;;10.80;6.55;;;;;;;;;;6319211;28;20040;-75
2022/03/06 14:59:10;;;;;;;11.63;6.32;;;;;;;;;;6319526;28;20048;-74
2022/03/06 15:02:13;;;;;;;11.25;6.05;;;;;;;;;;6320707;28;20054;-75
2022/03/06 15:05:16;;;;;;;11.70;6.18;;;;;;;;;;6320170;28;20452;-77
2022/03/06 15:08:20;;;;;;;12.27;6.80;;;;;;;;;;6318359;28;20059;-75
2022/03/06 15:11:24;;;;;;;11.05;6.45;;;;;;;;;;6302165;28;20143;-76
2022/03/06 15:14:28;;;;;;;11.10;6.35;;;;;;;;;;6301818;28;20054;-74
2022/03/06 15:17:31;;;;;;;13.23;7.17;;;;;;;;;;6318872;28;20123;-75
2022/03/06 15:20:37;;;;;;;12.20;7.10;;;;;;;;;;6319048;28;20083;-72
2022/03/06 15:23:40;;;;;;;11.23;6.93;;;;;;;;;;6319752;28;20059;-74
2022/03/06 15:26:46;;;;;;;14.73;7.68;;;;;;;;;;6301302;28;20063;-74
2022/03/06 15:29:51;;;;;;;13.27;7.07;;;;;;;;;;6299640;28;20040;-75
2022/03/06 15:32:54;;;;;;;14.03;7.57;;;;;;;;;;6320504;28;20044;-75
2022/03/06 15:35:57;;;;;;;12.27;7.00;;;;;;;;;;6301356;28;20051;-74
2022/03/06 15:39:03;;;;;;;;;;;;;;;;;;6318347;28;20055;-76
2022/03/06 15:42:07;;;;;;;11.65;7.00;;;;;;;;;;6318800;28;19920;-75
2022/03/06 15:45:12;;;;;;;14.77;7.50;;;;;;;;;;6301162;28;20075;-73
2022/03/06 15:48:18;;;;;;;12.50;6.73;;;;;;;;;;6300910;28;20048;-75
2022/03/06 15:51:24;;;;;;;12.65;6.78;;;;;;;;;;6317401;28;20285;-76
2022/03/06 15:54:29;;;;;;;14.27;6.75;;;;;;;;;;6319176;28;20048;-75
2022/03/06 15:57:32;;;;;;;12.60;7.20;;;;;;;;;;6319695;28;20048;-76
2022/03/06 16:00:38;;;;;;;14.18;7.28;;;;;;;;;;6299346;28;20293;-75
2022/03/06 16:03:42;;;;;;;14.23;7.43;;;;;;;;;;6318213;28;20485;-76
2022/03/06 16:06:45;;;;;;;13.95;7.95;;;;;;;;;;6318750;28;20048;-74
2022/03/06 16:09:54;;;;;;;13.18;7.70;;;;;;;;;;6300321;28;20075;-75
2022/03/06 16:13:00;;;;;;;14.27;7.82;;;;;;;;;;6298613;28;20052;-75
2022/03/06 16:16:07;;;;;;;17.48;9.65;;;;;;;;;;6318424;28;20043;-77
2022/03/06 16:19:10;;;;;;;;;;;;;;;;;;6301116;28;20036;-74
2022/03/06 16:22:17;;;;;;;17.52;8.95;;;;;;;;;;6297852;28;19997;-76
2022/03/06 16:25:21;;;;;;;16.52;9.00;;;;;;;;;;6318237;28;20043;-78
2022/03/06 16:28:24;;;;;;;15.82;8.60;;;;;;;;;;6283901;28;20040;-76
2022/03/06 16:31:31;;;;;;;16.58;9.38;;;;;;;;;;6317594;28;20043;-76
2022/03/06 16:34:37;;;;;;;17.75;8.98;;;;;;;;;;6316557;28;20425;-76
2022/03/06 16:37:41;;;;;;;15.15;8.80;;;;;;;;;;6299001;28;20412;-77
2022/03/06 16:40:46;;;;;;;18.85;9.15;;;;;;;;;;6317724;28;20093;-75
2022/03/06 16:43:49;;;;;;;18.07;9.27;;;;;;;;;;6315324;28;20482;-76
2022/03/06 16:46:57;;;;;;;18.42;9.65;;;;;;;;;;6298990;28;20101;-75
2022/03/06 16:50:02;;;;;;;15.55;9.48;;;;;;;;;;6317897;28;20495;-76
2022/03/06 16:53:07;;;;;;;21.05;10.00;;;;;;;;;;6298595;28;20048;-78
2022/03/06 16:56:13;;;;;;;;;;;;;;;;;;6313665;28;20048;-77
2022/03/06 16:59:16;;;;;;;17.85;8.38;;;;;;;;;;6297152;28;19962;-76
2022/03/06 17:02:22;;;;;;;16.55;8.68;;;;;;;;;;6297275;28;20125;-76
2022/03/06 17:05:26;;;;;;;17.63;9.55;;;;;;;;;;6294802;28;20051;-77
2022/03/06 17:08:31;;;;;;;19.30;9.75;;;;;;;;;;6315757;28;20055;-77
2022/03/06 17:11:34;;;;;;;19.38;11.02;;;;;;;;;;6299132;28;20146;-78
2022/03/06 17:14:38;;;;;;;18.40;9.55;;;;;;;;;;6316922;28;20044;-77
2022/03/06 17:17:45;;;;;;;18.25;9.52;;;;;;;;;;6297910;28;20162;-77
2022/03/06 17:20:49;;;;;;;18.20;9.55;;;;;;;;;;6299566;28;20059;-77
2022/03/06 17:23:53;;;;;;;20.33;9.95;;;;;;;;;;6316995;28;20462;-77
2022/03/06 17:26:57;;;;;;;16.85;9.32;;;;;;;;;;6315318;28;20040;-77
2022/03/06 17:30:00;;;;;;;19.02;10.18;;;;;;;;;;6299027;28;20490;-76
2022/03/06 17:33:07;;;;;;;22.70;9.63;;;;;;;;;;6298909;28;20501;-77
2022/03/06 17:36:10;;;;;;;19.25;9.57;;;;;;;;;;6315953;28;20474;-76
2022/03/06 17:39:14;;;;;;;19.00;10.18;;;;;;;;;;6298068;28;20040;-77
2022/03/06 17:42:20;;;;;;;18.58;10.45;;;;;;;;;;6317044;28;20086;-75
2022/03/06 17:45:24;;;;;;;21.23;11.18;;;;;;;;;;6316745;28;20044;-76
2022/03/06 17:48:29;;;;;;;19.75;10.23;;;;;;;;;;6315520;28;20123;-75
2022/03/06 17:51:37;;;;;;;22.58;10.93;;;;;;;;;;6303768;28;20093;-76
2022/03/06 17:54:40;;;;;;;20.30;10.13;;;;;;;;;;6321886;28;20409;-75
2022/03/06 17:57:44;;;;;;;22.60;12.00;;;;;;;;;;6320512;28;20048;-76
2022/03/06 18:00:48;;;;;;;26.50;12.65;;;;;;;;;;6286363;28;20063;-76
2022/03/06 18:03:54;;;;;;;41.50;12.32;;;;;;;;;;6320812;28;20067;-76
2022/03/06 18:06:57;;;;;;;24.08;12.60;;;;;;;;;;6321351;28;20044;-76
2022/03/06 18:10:00;;;;;;;17.85;10.18;;;;;;;;;;6301434;28;20055;-76
2022/03/06 18:13:04;;;;;;;20.90;10.80;;;;;;;;;;6321177;28;20064;-75
2022/03/06 18:16:08;;;;;;;20.17;10.32;;;;;;;;;;6303066;28;20094;-77